Time;durP1;ratioP1;P1;durP2;ratioP2;P2;SDS_P1;SDS_P2;PMS_P1;PMS_P2;Temp;Humidity;BMP_temperature;BMP_pressure;BME280_temperature;BME280_humidity;BME280_pressure;Samples;Min_cycle;Max_cycle;Signal;HPM_P1;HPM_P2
2021/05/14 00:00:37;;;;;;;4.07;1.63;;;7.50;99.90;;;;;;6187546;23;20021;-91
2021/05/14 00:03:04;;;;;;;1.90;1.70;;;7.50;99.90;;;;;;6216274;23;20100;-90
2021/05/14 00:05:35;;;;;;;3.03;1.65;;;7.50;99.90;;;;;;6187039;23;20021;-90
2021/05/14 00:08:03;;;;;;;2.10;1.67;;;7.50;99.90;;;;;;6187571;23;20025;-92
2021/05/14 00:10:31;;;;;;;2.85;1.73;;;7.50;99.90;;;;;;6185309;23;20017;-91
2021/05/14 00:12:59;;;;;;;3.55;1.90;;;7.50;99.90;;;;;;6187613;23;20025;-91
2021/05/14 00:15:26;;;;;;;1.95;1.75;;;7.40;99.90;;;;;;6187467;23;20029;-90
2021/05/14 00:17:53;;;;;;;1.83;1.73;;;7.40;99.90;;;;;;6192069;23;20397;-90
2021/05/14 00:20:20;;;;;;;6.47;1.75;;;7.40;99.90;;;;;;6194853;23;20065;-89
2021/05/14 00:22:47;;;;;;;2.65;2.10;;;7.30;99.90;;;;;;6193568;23;20024;-90
2021/05/14 00:25:14;;;;;;;1.65;1.55;;;7.30;99.90;;;;;;6167742;23;20032;-91
2021/05/14 00:27:41;;;;;;;1.73;1.63;;;7.30;99.90;;;;;;6193030;23;20024;-91
2021/05/14 00:30:09;;;;;;;4.30;2.10;;;7.30;99.90;;;;;;6192419;23;20389;-90
2021/05/14 00:32:37;;;;;;;2.00;1.65;;;7.30;99.90;;;;;;6164009;23;20021;-92
2021/05/14 00:35:05;;;;;;;2.40;1.80;;;7.30;99.90;;;;;;6188451;23;20025;-91
2021/05/14 00:37:32;;;;;;;3.67;2.40;;;7.30;99.90;;;;;;6191091;23;20029;-91
2021/05/14 00:40:00;;;;;;;3.45;1.90;;;7.30;99.90;;;;;;6193901;23;20048;-90
2021/05/14 00:42:27;;;;;;;4.10;1.83;;;7.20;99.90;;;;;;6199812;23;20081;-91
2021/05/14 00:44:54;;;;;;;3.30;2.05;;;7.20;99.90;;;;;;6222481;23;20036;-90
2021/05/14 00:47:21;;;;;;;3.13;1.90;;;7.20;99.90;;;;;;6198440;23;20029;-89
2021/05/14 00:49:54;;;;;;;2.05;1.73;;;7.10;99.90;;;;;;6198306;23;20047;-93
2021/05/14 00:52:21;;;;;;;2.97;2.08;;;7.10;99.90;;;;;;6194954;23;20013;-91
2021/05/14 00:54:49;;;;;;;5.97;2.30;;;7.10;99.90;;;;;;6197502;23;20091;-92
2021/05/14 00:57:17;;;;;;;2.30;2.13;;;7.00;99.90;;;;;;6197900;23;20041;-91
2021/05/14 00:59:46;;;;;;;2.35;2.15;;;7.00;99.90;;;;;;6195348;23;20076;-91
2021/05/14 01:02:17;;;;;;;3.53;2.40;;;7.00;99.90;;;;;;6187051;23;20028;-92
2021/05/14 01:04:48;;;;;;;2.85;2.10;;;6.90;99.90;;;;;;6185334;23;20036;-91
2021/05/14 01:07:15;;;;;;;2.97;2.53;;;6.80;99.90;;;;;;6186301;23;20025;-91
2021/05/14 01:09:47;;;;;;;5.40;1.88;;;6.80;99.90;;;;;;6212926;23;20068;-93
2021/05/14 01:12:14;;;;;;;4.15;2.35;;;6.70;99.90;;;;;;6185137;23;20079;-91
2021/05/14 01:14:42;;;;;;;3.03;1.88;;;6.70;99.90;;;;;;6158195;23;20095;-91
2021/05/14 01:17:09;;;;;;;4.65;1.77;;;6.70;99.90;;;;;;6183596;23;20080;-92
2021/05/14 01:19:38;;;;;;;5.05;2.28;;;6.60;99.90;;;;;;6184652;23;20352;-93
2021/05/14 01:22:08;;;;;;;3.60;1.80;;;6.60;99.90;;;;;;6183607;23;20087;-92
2021/05/14 01:24:35;;;;;;;2.85;1.95;;;6.60;99.90;;;;;;6183739;23;20094;-93
2021/05/14 01:27:03;;;;;;;4.20;1.83;;;6.50;99.90;;;;;;6180616;23;20021;-91
2021/05/14 01:29:31;;;;;;;5.10;2.10;;;6.50;99.90;;;;;;6183114;23;20025;-91
2021/05/14 01:31:58;;;;;;;3.05;1.88;;;6.50;99.90;;;;;;6183259;23;20405;-91
2021/05/14 01:34:26;;;;;;;2.95;1.83;;;6.40;99.90;;;;;;6183168;23;20021;-91
2021/05/14 01:36:54;;;;;;;3.65;2.20;;;6.40;99.90;;;;;;6193855;23;20087;-92
2021/05/14 01:39:24;;;;;;;3.95;2.10;;;6.40;99.90;;;;;;6196451;23;20036;-91
2021/05/14 01:41:56;;;;;;;2.95;1.90;;;6.40;99.90;;;;;;6188418;23;20037;-91
2021/05/14 01:44:27;;;;;;;4.10;1.73;;;6.40;99.90;;;;;;6184163;23;20325;-92
2021/05/14 01:46:54;;;;;;;4.10;2.22;;;6.40;99.90;;;;;;6183665;23;20124;-92
2021/05/14 01:49:22;;;;;;;2.67;2.17;;;6.30;99.90;;;;;;6183699;23;20092;-92
2021/05/14 01:51:53;;;;;;;2.70;2.50;;;6.20;99.90;;;;;;6184898;23;20036;-92
2021/05/14 01:54:23;;;;;;;3.85;2.38;;;6.10;99.90;;;;;;6184170;23;20155;-91
2021/05/14 01:56:54;;;;;;;3.45;2.28;;;6.10;99.90;;;;;;6182672;23;20112;-92
2021/05/14 01:59:38;;;;;;;3.13;2.20;;;6.00;99.90;;;;;;6151007;23;20126;-91
2021/05/14 02:02:05;;;;;;;2.85;2.30;;;6.10;99.90;;;;;;6102073;23;20039;-92
2021/05/14 02:04:33;;;;;;;5.25;2.40;;;6.10;99.90;;;;;;6150765;23;20080;-91
2021/05/14 02:07:01;;;;;;;2.63;2.33;;;6.00;99.90;;;;;;6150232;23;20033;-90
2021/05/14 02:09:32;;;;;;;2.80;2.30;;;6.10;99.90;;;;;;6127948;23;20033;-91
2021/05/14 02:11:59;;;;;;;5.72;2.20;;;6.10;99.90;;;;;;6150847;23;20317;-92
2021/05/14 02:14:28;;;;;;;3.13;2.13;;;6.20;99.90;;;;;;6151649;23;20026;-91
2021/05/14 02:16:58;;;;;;;5.25;2.17;;;6.30;99.90;;;;;;6151230;23;20112;-91
2021/05/14 02:19:25;;;;;;;2.47;2.00;;;6.40;99.90;;;;;;6127234;23;20032;-88
2021/05/14 02:21:55;;;;;;;2.20;1.90;;;6.50;99.90;;;;;;6127033;23;20118;-91
2021/05/14 02:24:30;;;;;;;2.97;2.33;;;6.50;99.90;;;;;;6150609;23;20025;-90
2021/05/14 02:26:58;;;;;;;6.55;2.20;;;6.60;99.90;;;;;;6151215;23;20100;-91
2021/05/14 02:29:37;;;;;;;5.10;2.10;;;6.60;99.90;;;;;;6150657;23;20428;-91
2021/05/14 02:32:09;;;;;;;3.30;2.00;;;6.60;99.90;;;;;;6137823;23;20028;-91
2021/05/14 02:34:36;;;;;;;2.10;1.92;;;6.60;99.90;;;;;;6183271;23;20017;-92
2021/05/14 02:37:03;;;;;;;3.75;1.95;;;6.50;99.90;;;;;;6133008;23;20081;-92
2021/05/14 02:39:31;;;;;;;8.10;2.40;;;6.50;99.90;;;;;;6183799;23;20055;-91
2021/05/14 02:41:59;;;;;;;2.00;1.83;;;6.40;99.90;;;;;;6182719;23;20488;-91
2021/05/14 02:44:26;;;;;;;5.55;2.30;;;6.40;99.90;;;;;;6157745;23;20025;-91
2021/05/14 02:46:57;;;;;;;2.17;1.97;;;6.30;99.90;;;;;;6171227;23;20071;-91
2021/05/14 02:49:24;;;;;;;3.80;2.08;;;6.30;99.90;;;;;;6181586;23;20347;-91
2021/05/14 02:51:51;;;;;;;4.63;2.25;;;6.30;99.90;;;;;;6183089;23;20092;-91
2021/05/14 02:54:26;;;;;;;3.72;2.10;;;6.20;99.90;;;;;;6181748;23;20021;-93
2021/05/14 02:56:54;;;;;;;6.22;2.20;;;6.20;99.90;;;;;;6183195;23;20301;-92
2021/05/14 02:59:21;;;;;;;2.75;2.30;;;6.20;99.90;;;;;;6157393;23;20029;-91
2021/05/14 03:01:53;;;;;;;11.57;2.33;;;6.10;99.90;;;;;;6182348;23;20024;-92
2021/05/14 03:04:23;;;;;;;2.45;2.13;;;6.00;99.90;;;;;;6184378;23;20476;-91
2021/05/14 03:06:50;;;;;;;3.00;2.33;;;6.00;99.90;;;;;;6157328;23;20083;-91
2021/05/14 03:09:17;;;;;;;3.45;2.17;;;6.00;99.90;;;;;;6184554;23;20021;-92
2021/05/14 03:11:47;;;;;;;8.15;2.60;;;6.00;99.90;;;;;;6183073;23;20020;-93
2021/05/14 03:14:21;;;;;;;3.53;2.17;;;6.00;99.90;;;;;;6185611;23;20049;-93
2021/05/14 03:16:50;;;;;;;3.25;2.50;;;5.90;99.90;;;;;;6182570;23;20309;-92
2021/05/14 03:19:17;;;;;;;2.67;2.15;;;5.90;99.90;;;;;;6183404;23;20032;-92
2021/05/14 03:21:44;;;;;;;3.08;2.30;;;5.80;99.90;;;;;;6182430;23;20017;-91
2021/05/14 03:24:11;;;;;;;6.55;2.70;;;5.80;99.90;;;;;;6183620;23;20095;-92
2021/05/14 03:26:47;;;;;;;2.85;2.50;;;5.80;99.90;;;;;;6182858;23;20421;-93
2021/05/14 03:29:18;;;;;;;4.88;2.28;;;5.80;99.90;;;;;;6157470;23;20028;-91
2021/05/14 03:31:46;;;;;;;5.07;2.13;;;5.80;99.90;;;;;;6182445;23;20075;-92
2021/05/14 03:34:13;;;;;;;4.32;2.30;;;5.80;99.90;;;;;;6156637;23;20025;-92
2021/05/14 03:36:40;;;;;;;3.58;2.03;;;5.80;99.90;;;;;;6182263;23;20081;-92
2021/05/14 03:39:11;;;;;;;4.13;2.40;;;5.80;99.90;;;;;;6157596;23;20021;-91
2021/05/14 03:41:47;;;;;;;3.70;2.80;;;5.70;99.90;;;;;;6157463;23;20044;-92
2021/05/14 03:44:34;;;;;;;4.22;2.30;;;5.70;99.90;;;;;;6160762;23;20020;-91
2021/05/14 03:47:03;;;;;;;4.60;2.58;;;5.70;99.90;;;;;;6132081;23;20159;-93
2021/05/14 03:49:43;;;;;;;;;;;;;;;;;;;;;
2021/05/14 03:52:13;;;;;;;4.80;2.50;;;5.70;99.90;;;;;;6183108;23;20025;-92
2021/05/14 03:54:41;;;;;;;3.33;2.55;;;5.60;99.90;;;;;;6194481;23;20021;-90
2021/05/14 03:57:11;;;;;;;6.53;2.95;;;5.60;99.90;;;;;;6159061;23;20027;-93
2021/05/14 03:59:55;;;;;;;;;;;;;;;;;;;;;
2021/05/14 04:02:22;;;;;;;4.20;2.00;;;5.60;99.90;;;;;;6185187;23;20021;-91
2021/05/14 04:04:54;;;;;;;3.47;2.60;;;5.60;99.90;;;;;;6160619;23;20020;-92
2021/05/14 04:07:24;;;;;;;5.07;2.55;;;5.60;99.90;;;;;;6185627;23;20024;-92
2021/05/14 04:10:14;;;;;;;3.30;2.30;;;5.60;99.90;;;;;;6184831;23;20032;-92
2021/05/14 04:15:34;;;;;;;3.78;2.17;;;5.60;99.90;;;;;;6184788;23;20021;-91
2021/05/14 04:18:04;;;;;;;2.97;2.30;;;5.60;99.90;;;;;;6184520;23;20657;-93
2021/05/14 04:20:34;;;;;;;3.08;2.20;;;5.70;99.90;;;;;;6159597;23;20029;-93
2021/05/14 04:23:03;;;;;;;3.55;2.40;;;5.70;99.90;;;;;;6158970;23;20087;-91
2021/05/14 04:25:36;;;;;;;3.47;2.60;;;5.80;99.90;;;;;;6159352;23;20345;-92
2021/05/14 04:28:08;;;;;;;;;;;5.70;99.90;;;;;;6183682;23;20025;-92
2021/05/14 04:30:38;;;;;;;4.07;2.40;;;5.70;99.90;;;;;;6183925;23;19959;-92
2021/05/14 04:33:10;;;;;;;4.70;2.15;;;5.80;99.90;;;;;;6183003;23;20494;-91
2021/05/14 04:35:37;;;;;;;5.80;2.55;;;5.80;99.90;;;;;;6183783;23;20041;-90
2021/05/14 04:38:04;;;;;;;2.33;2.13;;;5.90;99.90;;;;;;6185037;23;20079;-93
2021/05/14 04:40:32;;;;;;;3.00;2.30;;;6.00;99.90;;;;;;6188116;23;20079;-92
2021/05/14 04:43:10;;;;;;;2.35;2.13;;;6.00;99.90;;;;;;6187534;23;20047;-93
2021/05/14 04:45:38;;;;;;;3.03;2.15;;;6.10;99.90;;;;;;6187503;23;20075;-92
2021/05/14 04:48:09;;;;;;;3.40;2.08;;;6.00;99.90;;;;;;6186994;23;20021;-91
2021/05/14 04:50:40;;;;;;;2.85;2.05;;;6.10;99.90;;;;;;6187198;23;20432;-93
2021/05/14 04:53:12;;;;;;;3.47;2.35;;;6.10;99.90;;;;;;6186918;23;20029;-92
2021/05/14 04:55:39;;;;;;;2.67;2.30;;;6.20;99.90;;;;;;6186962;23;20119;-92
2021/05/14 04:58:12;;;;;;;4.20;2.63;;;6.20;99.90;;;;;;6162272;23;20029;-92
2021/05/14 05:00:47;;;;;;;5.93;2.28;;;6.20;99.90;;;;;;6140993;23;20072;-93
2021/05/14 05:03:14;;;;;;;3.63;2.28;;;6.30;99.90;;;;;;6161034;23;20029;-91
2021/05/14 05:05:50;;;;;;;5.82;2.50;;;6.40;99.90;;;;;;6164238;23;20024;-93
2021/05/14 05:08:17;;;;;;;3.20;2.63;;;6.40;99.90;;;;;;6187942;23;20025;-92
2021/05/14 05:10:49;;;;;;;3.28;2.38;;;6.50;99.90;;;;;;6188813;23;20021;-93
2021/05/14 05:13:17;;;;;;;5.22;2.42;;;6.60;99.90;;;;;;6140786;23;20033;-93
2021/05/14 05:15:44;;;;;;;2.70;2.17;;;6.60;99.90;;;;;;6163150;23;20021;-93
2021/05/14 05:18:13;;;;;;;4.07;2.38;;;6.70;99.90;;;;;;6188903;23;20317;-93
2021/05/14 05:20:40;;;;;;;2.67;2.20;;;6.80;99.90;;;;;;6161363;23;20033;-92
2021/05/14 05:23:07;;;;;;;4.57;2.30;;;6.90;99.90;;;;;;6187731;23;20025;-92
2021/05/14 05:25:34;;;;;;;7.13;2.30;;;7.00;99.90;;;;;;6188664;23;20381;-92
2021/05/14 05:28:03;;;;;;;3.17;2.05;;;7.10;99.90;;;;;;6187676;23;20104;-92
2021/05/14 05:30:30;;;;;;;3.88;1.92;;;7.20;99.90;;;;;;6186548;23;20075;-92
2021/05/14 05:32:57;;;;;;;2.00;1.80;;;7.50;99.90;;;;;;6187237;23;20378;-91
2021/05/14 05:35:24;;;;;;;2.70;1.48;;;7.60;99.90;;;;;;6188335;23;20440;-90
2021/05/14 05:45:39;;;;;;;4.22;1.40;;;8.50;99.90;;;;;;6090483;23;20130;-91
2021/05/14 05:48:10;;;;;;;3.58;1.40;;;9.00;99.90;;;;;;6091516;23;20036;-92
2021/05/14 05:50:38;;;;;;;2.25;1.40;;;9.30;99.90;;;;;;6112549;23;20123;-91
2021/05/14 05:53:08;;;;;;;5.07;1.48;;;9.50;99.90;;;;;;6183878;23;20081;-92
2021/05/14 05:55:44;;;;;;;1.27;1.17;;;9.50;99.90;;;;;;6158459;23;20074;-89
2021/05/14 05:58:18;;;;;;;1.80;1.10;;;9.50;99.90;;;;;;6185778;23;20021;-90
2021/05/14 06:00:47;;;;;;;4.28;1.17;;;9.40;99.90;;;;;;6163722;23;20029;-91
2021/05/14 06:03:15;;;;;;;2.35;1.30;;;9.40;99.90;;;;;;6191859;23;20417;-90
2021/05/14 06:05:42;;;;;;;1.60;1.20;;;9.40;99.90;;;;;;6190187;23;20025;-90
2021/05/14 06:08:14;;;;;;;4.05;1.30;;;9.50;99.90;;;;;;6161139;23;20295;-90
2021/05/14 06:10:46;;;;;;;1.33;1.17;;;9.80;99.90;;;;;;6159017;23;20048;-88
2021/05/14 06:13:17;;;;;;;4.95;1.27;;;10.10;99.90;;;;;;6156772;23;20025;-89
2021/05/14 06:15:48;;;;;;;1.60;1.20;;;10.40;99.90;;;;;;6130061;23;20341;-95
2021/05/14 06:18:16;;;;;;;2.38;1.30;;;10.70;99.90;;;;;;6163165;23;20076;-90
2021/05/14 06:20:45;;;;;;;2.85;1.70;;;10.70;99.90;;;;;;6165259;23;20084;-91
2021/05/14 06:23:35;;;;;;;1.50;1.10;;;10.80;99.90;;;;;;6162565;23;20030;-92
2021/05/14 06:26:14;;;;;;;1.45;1.10;;;11.10;99.90;;;;;;6140451;23;20039;-91
2021/05/14 06:28:45;;;;;;;2.03;1.00;;;11.40;99.90;;;;;;6170162;23;20021;-93
2021/05/14 06:31:17;;;;;;;0.82;0.80;;;11.40;99.90;;;;;;6162670;23;20325;-93
2021/05/14 06:33:44;;;;;;;2.22;1.30;;;11.50;99.90;;;;;;6159126;23;20022;-93
2021/05/14 06:36:24;;;;;;;3.05;0.90;;;11.70;99.90;;;;;;6160281;23;20313;-92
2021/05/14 06:38:53;;;;;;;2.50;1.30;;;12.00;99.90;;;;;;6165136;23;20033;-90
2021/05/14 06:41:20;;;;;;;0.68;0.68;;;12.20;99.90;;;;;;6162132;23;20032;-90
2021/05/14 06:43:56;;;;;;;2.53;1.10;;;12.40;99.90;;;;;;6155860;23;20344;-92
2021/05/14 06:46:24;;;;;;;1.65;1.08;;;12.70;99.90;;;;;;6154000;23;20025;-89
2021/05/14 06:48:51;;;;;;;0.80;0.80;;;13.00;99.90;;;;;;6156548;23;20065;-89
2021/05/14 06:51:18;;;;;;;0.60;0.60;;;13.00;99.90;;;;;;6156585;23;20444;-90
2021/05/14 06:53:47;;;;;;;3.10;0.73;;;13.30;99.90;;;;;;6156193;23;20029;-89
2021/05/14 06:56:14;;;;;;;1.35;0.80;;;13.60;99.90;;;;;;6131038;23;20311;-90
2021/05/14 06:58:41;;;;;;;2.58;0.77;;;13.80;99.90;;;;;;6157189;23;20030;-89
2021/05/14 07:01:11;;;;;;;1.08;0.63;;;13.70;99.90;;;;;;6130422;23;20440;-91
2021/05/14 07:03:38;;;;;;;0.63;0.60;;;13.70;99.90;;;;;;6154063;23;20066;-89
2021/05/14 07:06:05;;;;;;;0.50;0.50;;;13.90;99.90;;;;;;6160210;23;20033;-90
2021/05/14 07:08:32;;;;;;;0.85;0.60;;;14.10;99.90;;;;;;6183745;23;20026;-92
2021/05/14 07:10:59;;;;;;;1.52;0.70;;;14.50;99.50;;;;;;6184148;23;20067;-92
2021/05/14 07:13:29;;;;;;;2.03;0.60;;;14.60;96.50;;;;;;6184263;23;20032;-92
2021/05/14 07:16:06;;;;;;;;;;;;;;;;;;;;;
2021/05/14 07:18:34;;;;;;;0.88;0.50;;;15.20;93.10;;;;;;6182641;23;20021;-90
2021/05/14 07:21:05;;;;;;;1.92;0.50;;;14.90;91.90;;;;;;6183521;23;20144;-91
2021/05/14 07:23:52;;;;;;;0.88;0.43;;;14.70;93.00;;;;;;6182203;23;20025;-91
2021/05/14 07:26:20;;;;;;;1.38;0.65;;;15.00;93.10;;;;;;6184924;23;20017;-91
2021/05/14 07:28:47;;;;;;;1.38;0.73;;;15.30;90.80;;;;;;6211537;23;20088;-90
2021/05/14 07:31:14;;;;;;;2.33;0.60;;;15.90;88.80;;;;;;6186149;23;20032;-92
2021/05/14 07:33:44;;;;;;;0.60;0.40;;;16.30;84.70;;;;;;6213749;23;20633;-90
2021/05/14 07:36:11;;;;;;;0.30;0.30;;;16.40;76.90;;;;;;6194597;23;20021;-92
2021/05/14 07:38:40;;;;;;;0.63;0.45;;;15.90;78.30;;;;;;6194306;23;20048;-94
2021/05/14 07:41:12;;;;;;;0.93;0.63;;;15.80;82.30;;;;;;6192235;23;20072;-93
2021/05/14 07:43:39;;;;;;;0.73;0.40;;;16.20;80.80;;;;;;6188180;23;20021;-93
2021/05/14 07:46:07;;;;;;;0.40;0.35;;;16.40;78.20;;;;;;6186704;23;20389;-92
2021/05/14 07:48:35;;;;;;;0.32;0.30;;;16.50;78.50;;;;;;6185589;23;20021;-92
2021/05/14 07:51:03;;;;;;;0.55;0.47;;;16.10;78.30;;;;;;6182685;23;20024;-88
2021/05/14 07:53:30;;;;;;;0.60;0.40;;;16.30;78.40;;;;;;6183721;23;20021;-90
2021/05/14 07:55:58;;;;;;;1.15;0.50;;;16.20;77.60;;;;;;6182711;23;20333;-90
2021/05/14 07:58:24;;;;;;;0.52;0.45;;;16.40;77.40;;;;;;6188847;23;20071;-89
2021/05/14 08:01:00;;;;;;;3.28;0.60;;;16.40;76.10;;;;;;6185159;23;20087;-92
2021/05/14 08:03:27;;;;;;;0.50;0.50;;;16.80;74.60;;;;;;6184914;23;20065;-93
2021/05/14 08:05:59;;;;;;;1.30;0.70;;;16.90;73.50;;;;;;6210316;23;20025;-91
2021/05/14 08:08:27;;;;;;;3.33;0.68;;;17.60;72.90;;;;;;6159605;23;20037;-91
2021/05/14 08:10:56;;;;;;;2.60;0.80;;;17.90;69.80;;;;;;6185848;23;20021;-93
2021/05/14 08:13:26;;;;;;;1.88;0.68;;;18.00;68.30;;;;;;6186536;23;20028;-90
2021/05/14 08:15:56;;;;;;;7.32;1.00;;;18.30;67.40;;;;;;6186031;23;20059;-93
2021/05/14 08:18:24;;;;;;;3.58;0.60;;;18.90;66.10;;;;;;6184505;23;20020;-90
2021/05/14 08:20:51;;;;;;;3.28;1.08;;;18.90;63.30;;;;;;6196183;23;20029;-92
2021/05/14 08:23:21;;;;;;;2.25;0.60;;;18.80;62.00;;;;;;6170800;23;20077;-92
2021/05/14 08:25:49;;;;;;;2.70;0.60;;;19.40;62.10;;;;;;6190978;23;20083;-93
2021/05/14 08:28:19;;;;;;;0.85;0.50;;;19.40;58.20;;;;;;6189411;23;20036;-93
2021/05/14 08:30:49;;;;;;;0.90;0.60;;;19.30;59.40;;;;;;6162855;23;20140;-95
2021/05/14 08:33:16;;;;;;;1.33;0.70;;;19.90;59.00;;;;;;6184600;23;20076;-92
2021/05/14 08:35:46;;;;;;;1.98;0.50;;;20.00;57.20;;;;;;6185293;23;20021;-92
2021/05/14 08:38:15;;;;;;;1.98;0.73;;;20.20;57.30;;;;;;6183486;23;20057;-91
2021/05/14 08:40:47;;;;;;;2.25;0.40;;;20.10;57.70;;;;;;6185320;23;20025;-91
2021/05/14 08:43:17;;;;;;;4.00;0.80;;;19.60;58.00;;;;;;6186825;23;20020;-93
2021/05/14 08:45:43;;;;;;;1.65;0.40;;;20.00;58.50;;;;;;6184953;23;20025;-93
2021/05/14 08:48:12;;;;;;;3.10;0.60;;;20.70;54.90;;;;;;6161388;23;20385;-93
2021/05/14 08:50:40;;;;;;;1.25;0.47;;;21.60;52.70;;;;;;6164860;23;20072;-93
2021/05/14 08:53:31;;;;;;;1.80;0.47;;;22.50;50.80;;;;;;6169047;23;20087;-92
2021/05/14 08:56:01;;;;;;;1.70;0.47;;;23.00;49.90;;;;;;6189421;23;20429;-91
2021/05/14 08:58:30;;;;;;;3.92;0.47;;;23.40;47.90;;;;;;6195992;23;20072;-92
2021/05/14 09:00:58;;;;;;;2.15;0.40;;;24.00;45.20;;;;;;6197164;23;20025;-92
2021/05/14 09:03:33;;;;;;;0.60;0.30;;;24.30;43.90;;;;;;6193434;23;20096;-91
2021/05/14 09:06:03;;;;;;;3.10;0.45;;;22.70;46.40;;;;;;6194070;23;20100;-91
2021/05/14 09:08:32;;;;;;;1.23;0.50;;;22.00;48.70;;;;;;6194580;23;20032;-92
2021/05/14 09:10:59;;;;;;;1.63;0.40;;;21.90;49.50;;;;;;6165860;23;20021;-90
2021/05/14 09:13:37;;;;;;;2.53;0.73;;;21.70;49.60;;;;;;6167054;23;20596;-92
2021/05/14 09:16:05;;;;;;;0.93;0.30;;;21.80;47.80;;;;;;6199528;23;20009;-92
2021/05/14 09:18:33;;;;;;;0.45;0.35;;;21.60;49.00;;;;;;6201413;23;20021;-91
2021/05/14 09:21:03;;;;;;;1.52;0.50;;;21.60;48.20;;;;;;6204350;23;20080;-91
2021/05/14 09:23:34;;;;;;;1.30;0.38;;;22.10;47.10;;;;;;6196876;23;20033;-92
2021/05/14 09:26:10;;;;;;;0.28;0.28;;;21.70;47.90;;;;;;6165799;23;20021;-91
2021/05/14 09:28:42;;;;;;;0.85;0.50;;;22.00;48.00;;;;;;6196978;23;20027;-92
2021/05/14 09:31:12;;;;;;;0.80;0.32;;;21.90;48.50;;;;;;6198833;23;20032;-90
2021/05/14 09:33:52;;;;;;;0.95;0.40;;;20.20;49.80;;;;;;6202181;23;20352;-92
2021/05/14 09:36:24;;;;;;;1.65;0.55;;;18.90;53.10;;;;;;6201889;23;20056;-91
2021/05/14 09:39:03;;;;;;;4.00;0.73;;;17.90;56.60;;;;;;6197125;23;20060;-91
2021/05/14 09:41:32;;;;;;;6.20;0.77;;;16.70;64.50;;;;;;6197819;23;20096;-91
2021/05/14 09:44:02;;;;;;;4.85;0.85;;;14.60;85.10;;;;;;6198860;23;20043;-90
2021/05/14 09:46:41;;;;;;;4.05;1.00;;;13.30;99.90;;;;;;6195905;23;20032;-91
2021/05/14 09:49:16;;;;;;;1.55;0.82;;;12.50;99.90;;;;;;6193703;23;20070;-92
2021/05/14 09:51:55;;;;;;;3.03;1.00;;;12.10;99.90;;;;;;6164516;23;20111;-92
2021/05/14 09:54:27;;;;;;;2.42;1.40;;;11.80;99.90;;;;;;6187230;23;20486;-92
2021/05/14 09:57:05;;;;;;;2.85;1.30;;;11.70;99.90;;;;;;6186095;23;20025;-92
2021/05/14 09:59:32;;;;;;;4.60;1.50;;;11.90;99.90;;;;;;6186959;23;20021;-90
2021/05/14 10:02:01;;;;;;;4.63;1.60;;;12.10;99.90;;;;;;6158824;23;20075;-89
2021/05/14 10:04:36;;;;;;;3.35;1.70;;;12.40;99.90;;;;;;6189433;23;20097;-91
2021/05/14 10:07:04;;;;;;;3.80;2.08;;;12.90;99.90;;;;;;6190801;23;20091;-92
2021/05/14 10:09:31;;;;;;;1.73;0.85;;;13.40;99.90;;;;;;6170663;23;20471;-94
2021/05/14 10:12:04;;;;;;;4.05;1.70;;;14.80;99.90;;;;;;6195287;23;20357;-91
2021/05/14 10:14:32;;;;;;;6.93;1.88;;;16.80;98.90;;;;;;6162937;23;20073;-92
2021/05/14 10:17:00;;;;;;;1.60;1.25;;;17.40;79.90;;;;;;6186759;23;20325;-92
2021/05/14 10:19:32;;;;;;;3.00;1.00;;;18.00;82.90;;;;;;6160243;23;20048;-91
2021/05/14 10:22:00;;;;;;;1.25;0.60;;;19.20;73.40;;;;;;6186473;23;20120;-91
2021/05/14 10:24:42;;;;;;;1.05;0.40;;;20.80;59.50;;;;;;6185109;23;20319;-91
2021/05/14 10:27:25;;;;;;;3.10;0.43;;;22.00;57.20;;;;;;6186149;23;20369;-90
2021/05/14 10:29:57;;;;;;;1.75;0.50;;;22.80;50.50;;;;;;6160224;23;20031;-93
2021/05/14 10:32:43;;;;;;;0.95;0.38;;;23.60;53.10;;;;;;6184879;23;20151;-89
2021/05/14 10:35:17;;;;;;;2.03;0.50;;;24.30;46.70;;;;;;6158256;23;20083;-89
2021/05/14 10:38:08;;;;;;;1.30;0.20;;;24.20;44.50;;;;;;6157715;23;20676;-89
2021/05/14 10:40:36;;;;;;;2.65;0.60;;;23.30;46.00;;;;;;6157631;23;20103;-89
2021/05/14 10:43:06;;;;;;;1.23;0.45;;;22.60;48.30;;;;;;6184235;23;20083;-92
2021/05/14 10:45:33;;;;;;;2.42;0.80;;;21.60;51.90;;;;;;6189901;23;20032;-90
2021/05/14 10:48:01;;;;;;;1.00;0.40;;;20.90;53.50;;;;;;6169680;23;20021;-92
2021/05/14 10:50:32;;;;;;;1.55;0.50;;;20.50;56.00;;;;;;6163328;23;20055;-91
2021/05/14 10:53:29;;;;;;;0.73;0.30;;;20.90;57.20;;;;;;6157627;23;20021;-91
2021/05/14 10:56:17;;;;;;;3.17;0.40;;;22.70;56.10;;;;;;6184002;23;20021;-92
2021/05/14 10:58:51;;;;;;;4.43;0.73;;;24.30;51.70;;;;;;6185033;23;20044;-91
2021/05/14 11:01:36;;;;;;;2.13;0.63;;;25.20;49.20;;;;;;6184435;23;20029;-89
2021/05/14 11:04:12;;;;;;;1.15;0.57;;;25.60;46.30;;;;;;6184054;23;20083;-91
2021/05/14 11:06:44;;;;;;;0.88;0.35;;;25.60;45.40;;;;;;6183072;23;20079;-94
2021/05/14 11:09:13;;;;;;;1.67;0.40;;;26.10;43.40;;;;;;6183244;23;20091;-92
2021/05/14 11:11:58;;;;;;;0.45;0.30;;;27.00;45.10;;;;;;6183286;23;20025;-89
2021/05/14 11:14:46;;;;;;;1.02;0.52;;;26.50;40.40;;;;;;6182812;23;20116;-91
2021/05/14 11:17:18;;;;;;;2.25;0.63;;;25.30;40.60;;;;;;6182950;23;20095;-92
2021/05/14 11:19:46;;;;;;;2.90;0.57;;;23.70;44.00;;;;;;6184030;23;20028;-90
2021/05/14 11:22:26;;;;;;;3.40;0.40;;;22.60;45.50;;;;;;6183738;23;20079;-89
2021/05/14 11:24:54;;;;;;;2.38;0.57;;;21.80;47.30;;;;;;6158251;23;20025;-89
2021/05/14 11:27:32;;;;;;;1.63;0.60;;;21.20;47.90;;;;;;6157706;23;20100;-90
2021/05/14 11:30:14;;;;;;;5.78;0.68;;;20.70;52.00;;;;;;6183855;23;20089;-90
2021/05/14 11:32:46;;;;;;;1.98;0.50;;;20.40;54.30;;;;;;6157676;23;20028;-89
2021/05/14 11:35:20;;;;;;;1.25;0.60;;;20.40;50.40;;;;;;6183871;23;20136;-90
2021/05/14 11:37:52;;;;;;;1.65;0.50;;;20.00;53.50;;;;;;6183845;23;20079;-91
2021/05/14 11:40:36;;;;;;;2.20;0.65;;;19.80;52.40;;;;;;6186228;23;20149;-89
2021/05/14 11:43:06;;;;;;;2.47;0.50;;;19.10;57.50;;;;;;6187192;23;20056;-90
2021/05/14 11:45:36;;;;;;;2.55;1.17;;;18.80;57.50;;;;;;6190499;23;20021;-90
2021/05/14 11:48:21;;;;;;;7.72;3.15;;;18.40;58.90;;;;;;6188170;23;20099;-89
2021/05/14 11:50:57;;;;;;;;;;;18.20;58.50;;;;;;6189953;23;20025;-89
2021/05/14 11:53:27;;;;;;;1.38;0.90;;;18.10;60.60;;;;;;6188220;23;20187;-90
2021/05/14 11:55:55;;;;;;;3.63;0.70;;;18.30;65.00;;;;;;6184634;23;20043;-91
2021/05/14 11:58:25;;;;;;;1.08;0.60;;;18.20;65.80;;;;;;6183327;23;20017;-90
2021/05/14 12:00:57;;;;;;;0.77;0.40;;;18.80;65.40;;;;;;6158917;23;20021;-91
2021/05/14 12:03:25;;;;;;;0.82;0.52;;;20.40;77.90;;;;;;6157039;23;20021;-89
2021/05/14 12:05:55;;;;;;;1.52;0.40;;;22.60;53.40;;;;;;6160984;23;20025;-90
2021/05/14 12:08:26;;;;;;;1.30;0.50;;;23.90;51.60;;;;;;6181607;23;20155;-90
2021/05/14 12:11:08;;;;;;;2.13;0.43;;;25.20;49.60;;;;;;6182828;23;20365;-92
2021/05/14 12:13:42;;;;;;;;;;;25.90;46.90;;;;;;6158264;23;20021;-93
2021/05/14 12:16:10;;;;;;;0.50;0.20;;;26.70;47.80;;;;;;6185269;23;19927;-91
2021/05/14 12:18:47;;;;;;;3.47;0.43;;;27.40;42.00;;;;;;6182416;23;20027;-93
2021/05/14 12:21:29;;;;;;;0.70;0.40;;;26.60;39.80;;;;;;6184571;23;20079;-90
2021/05/14 12:23:58;;;;;;;0.70;0.20;;;25.70;39.00;;;;;;6184791;23;20079;-90
2021/05/14 12:26:31;;;;;;;1.80;0.40;;;23.80;36.90;;;;;;6184021;23;20029;-93
2021/05/14 12:28:58;;;;;;;0.80;0.40;;;22.80;39.60;;;;;;6185363;23;20092;-89
2021/05/14 12:31:26;;;;;;;2.15;0.47;;;22.50;41.20;;;;;;6185710;23;20036;-92
2021/05/14 12:33:55;;;;;;;0.93;0.55;;;22.00;43.50;;;;;;6185932;23;20087;-91
2021/05/14 12:36:24;;;;;;;0.57;0.30;;;22.30;44.50;;;;;;6185413;23;20028;-90
2021/05/14 12:38:53;;;;;;;1.98;0.38;;;22.50;43.60;;;;;;6159709;23;20091;-91
2021/05/14 12:41:43;;;;;;;1.92;0.65;;;22.60;43.30;;;;;;6185661;23;20140;-91
2021/05/14 12:44:17;;;;;;;1.55;0.50;;;22.70;45.60;;;;;;6159285;23;20017;-92
2021/05/14 12:47:05;;;;;;;2.55;0.40;;;23.60;46.40;;;;;;6159256;23;20044;-91
2021/05/14 12:49:56;;;;;;;3.83;0.40;;;24.90;42.80;;;;;;6185818;23;20021;-91
2021/05/14 12:52:32;;;;;;;0.88;0.40;;;26.30;39.20;;;;;;6187044;23;20087;-91
2021/05/14 12:55:05;;;;;;;1.17;0.47;;;24.90;37.20;;;;;;6185715;23;20028;-91
2021/05/14 12:57:35;;;;;;;1.48;0.30;;;24.70;40.50;;;;;;6186475;23;20021;-92
2021/05/14 13:00:11;;;;;;;1.25;0.35;;;25.40;36.60;;;;;;6187745;23;20044;-91
2021/05/14 13:02:38;;;;;;;3.03;0.50;;;24.80;36.70;;;;;;6184571;23;20067;-95
2021/05/14 13:05:10;;;;;;;2.03;0.30;;;23.70;40.60;;;;;;6164172;23;20028;-93
2021/05/14 13:07:57;;;;;;;2.28;0.60;;;22.60;41.60;;;;;;6186050;23;20025;-93
2021/05/14 13:10:37;;;;;;;1.27;0.40;;;21.50;45.10;;;;;;6185797;23;20652;-92
2021/05/14 13:13:06;;;;;;;2.63;0.52;;;20.70;45.20;;;;;;6186803;23;20025;-91
2021/05/14 13:15:33;;;;;;;1.67;0.60;;;20.10;47.00;;;;;;6159385;23;20048;-90
2021/05/14 13:18:29;;;;;;;1.17;0.40;;;20.00;47.80;;;;;;6165791;23;20109;-87
2021/05/14 13:21:04;;;;;;;5.43;0.68;;;20.50;51.70;;;;;;6192184;23;20013;-88
2021/05/14 13:23:34;;;;;;;0.52;0.35;;;21.40;45.10;;;;;;6190725;23;20163;-93
2021/05/14 13:26:02;;;;;;;3.30;0.40;;;22.70;40.70;;;;;;6186255;23;20530;-92